»·PEaware :: QXE2294 KRDM-KSEA

QXE2294 :: KRDM-KSEA

FLIGHT INFORMATION

Flight Status: Arrived
Operator:
Horizon Air
More flights by this operator :: More flights under this callsign
Pilot: Adlai G. (28854)
Aircraft: DEHAVILLAND DASH 8 400
(DH8D)
More flights by this aircraft type
Origin: KRDM Roberts
United States
Destination: KSEA Seattle-Tacoma Intl
United States
More flights between these airports :: More routes between these airports
Route: +DSD J159 BTG KRIEG HAWKZ7
File this flight plan on PilotEdge
Remarks:
Altitude:
(Current/Filed)
24,000ft
Speed:
(Current/Filed)
365kts
Departed: 10-Jun-20 11:20 AM
Arrived: 10-Jun-20 12:06 PM
Distance/Time
Traveled:
197nm/0:46
Distance/Time
To Go:
Arrived

Flight Plot

Page will automatically refresh every two minutes.

Flight plan parsing failed; only flown route is shown


Map Options




Map Legend


Flown Route
Filed Route
Departure Airport
Arrival Airport
Navaid (VOR, NDB)
Fix

Horizontal Profiles

Position Reports

Time Latitude Longitude Heading Altitude Ground
Speed
10-Jun-20 10:26 44.259055 -121.157116 29 3084ft 0kts
10-Jun-20 10:28 44.259055 -121.157116 29 3084ft 0kts
10-Jun-20 10:28 44.259055 -121.157116 29 3084ft 0kts
10-Jun-20 10:29 44.259055 -121.157116 29 3084ft 0kts
10-Jun-20 10:31 44.259055 -121.157116 29 3084ft 0kts
10-Jun-20 10:31 44.259055 -121.157116 29 3084ft 0kts
10-Jun-20 10:32 44.259055 -121.157116 29 3084ft 0kts
10-Jun-20 10:33 44.259055 -121.157116 29 3084ft 0kts
10-Jun-20 10:34 44.259055 -121.157116 29 3084ft 0kts
10-Jun-20 10:35 44.259055 -121.157116 29 3084ft 0kts
10-Jun-20 10:36 44.259055 -121.157116 29 3084ft 0kts
10-Jun-20 10:37 44.259055 -121.157116 29 3084ft 0kts
10-Jun-20 10:38 44.259055 -121.157116 29 3084ft 0kts
10-Jun-20 10:39 44.259055 -121.157116 29 3084ft 0kts
10-Jun-20 10:40 44.259055 -121.157116 29 3084ft 0kts
10-Jun-20 10:41 44.259055 -121.157116 29 3084ft 0kts
10-Jun-20 10:42 44.259055 -121.157116 29 3084ft 0kts
10-Jun-20 10:43 44.259055 -121.157116 29 3084ft 0kts
10-Jun-20 10:44 44.259055 -121.157116 29 3084ft 0kts
10-Jun-20 10:45 44.259055 -121.157116 29 3084ft 0kts
10-Jun-20 10:46 44.259055 -121.157116 29 3084ft 0kts
10-Jun-20 10:47 44.259055 -121.157116 29 3084ft 0kts
10-Jun-20 10:48 44.259055 -121.157116 29 3084ft 0kts
10-Jun-20 10:49 44.259055 -121.157116 29 3084ft 0kts
10-Jun-20 10:50 44.259055 -121.157116 29 3084ft 0kts
10-Jun-20 10:51 44.259055 -121.157116 29 3084ft 0kts
10-Jun-20 10:52 44.259055 -121.157116 29 3084ft 0kts
10-Jun-20 10:53 44.259055 -121.157116 29 3084ft 0kts
10-Jun-20 10:54 44.259055 -121.157116 29 3084ft 0kts
10-Jun-20 10:55 44.259055 -121.157116 29 3084ft 0kts
10-Jun-20 10:56 44.259055 -121.157116 29 3084ft 0kts
10-Jun-20 10:57 44.259055 -121.157116 29 3084ft 0kts
10-Jun-20 10:58 44.259055 -121.157116 29 3084ft 0kts
10-Jun-20 10:59 44.259055 -121.157116 29 3084ft 0kts
10-Jun-20 11:00 44.259055 -121.157116 29 3084ft 0kts
10-Jun-20 11:01 44.259055 -121.157116 29 3084ft 0kts
10-Jun-20 11:02 44.259055 -121.157116 29 3084ft 0kts
10-Jun-20 11:03 44.259055 -121.157116 29 3084ft 0kts
10-Jun-20 11:04 44.259055 -121.157116 29 3084ft 0kts
10-Jun-20 11:05 44.259055 -121.157116 29 3084ft 0kts
10-Jun-20 11:06 44.259037 -121.157130 29 3084ft 1kts
10-Jun-20 11:07 44.258490 -121.157832 84 3084ft 3kts
10-Jun-20 11:08 44.258579 -121.158165 121 3084ft 0kts
10-Jun-20 11:09 44.258579 -121.158166 121 3084ft 0kts
10-Jun-20 11:10 44.258579 -121.158166 121 3084ft 0kts
10-Jun-20 11:11 44.258579 -121.158166 121 3084ft 0kts
10-Jun-20 11:12 44.258579 -121.158164 121 3084ft 0kts
10-Jun-20 11:13 44.257468 -121.155608 119 3084ft 16kts
10-Jun-20 11:14 44.255464 -121.150259 65 3084ft 14kts
10-Jun-20 11:15 44.258629 -121.142670 59 3084ft 22kts
10-Jun-20 11:16 44.259553 -121.139398 142 3084ft 4kts
10-Jun-20 11:17 44.259465 -121.139309 144 3084ft 0kts
10-Jun-20 11:18 44.258745 -121.139202 238 3084ft 8kts
10-Jun-20 11:19 44.247398 -121.168025 241 3880ft 141kts
10-Jun-20 11:20 44.242595 -121.227698 283 5866ft 192kts
10-Jun-20 11:21 44.261663 -121.302213 310 8266ft 222kts
10-Jun-20 11:22 44.314766 -121.354483 325 10063ft 248kts
10-Jun-20 11:23 44.375901 -121.403523 326 11613ft 261kts
10-Jun-20 11:24 44.439159 -121.455053 325 13179ft 263kts
10-Jun-20 11:25 44.500868 -121.510167 321 14551ft 264kts
10-Jun-20 11:26 44.564174 -121.565075 322 15618ft 268kts
10-Jun-20 11:27 44.626981 -121.618025 322 16816ft 262kts
10-Jun-20 11:28 44.689635 -121.671222 322 18051ft 255kts
10-Jun-20 11:29 44.749439 -121.722196 321 19377ft 251kts
10-Jun-20 11:30 44.809594 -121.773763 321 20553ft 254kts
10-Jun-20 11:31 44.870933 -121.826104 321 21593ft 261kts
10-Jun-20 11:32 44.933589 -121.879963 321 22594ft 265kts
10-Jun-20 11:33 44.997242 -121.934638 321 23595ft 268kts
10-Jun-20 11:34 45.062423 -121.991066 321 24144ft 288kts
10-Jun-20 11:35 45.134382 -122.053720 322 24167ft 317kts
10-Jun-20 11:36 45.211928 -122.120781 322 24166ft 335kts
10-Jun-20 11:37 45.292848 -122.191127 322 24165ft 346kts
10-Jun-20 11:38 45.375320 -122.263145 322 24165ft 351kts
10-Jun-20 11:39 45.458785 -122.336235 322 24165ft 354kts
10-Jun-20 11:40 45.542680 -122.409897 322 24164ft 356kts
10-Jun-20 11:41 45.626683 -122.484117 322 24164ft 356kts
10-Jun-20 11:42 45.710868 -122.558731 322 24164ft 357kts
10-Jun-20 11:43 45.805377 -122.606099 348 24161ft 373kts
10-Jun-20 11:44 45.907636 -122.626784 345 24158ft 372kts
10-Jun-20 11:45 46.009601 -122.651066 345 24156ft 374kts
10-Jun-20 11:46 46.112255 -122.674383 345 24156ft 374kts
10-Jun-20 11:47 46.215006 -122.697945 345 23708ft 378kts
10-Jun-20 11:48 46.319387 -122.721943 346 21909ft 382kts
10-Jun-20 11:49 46.426005 -122.726175 355 20089ft 385kts
10-Jun-20 11:50 46.532866 -122.729876 354 18264ft 381kts
10-Jun-20 11:51 46.638372 -122.733889 355 16332ft 379kts
10-Jun-20 11:52 46.740846 -122.737408 355 14551ft 353kts
10-Jun-20 11:53 46.828524 -122.689796 40 12937ft 348kts
10-Jun-20 11:54 46.897887 -122.595896 45 11431ft 323kts
10-Jun-20 11:55 46.956885 -122.507122 46 9925ft 293kts
10-Jun-20 11:56 47.019984 -122.433888 23 8028ft 282kts
10-Jun-20 11:57 47.083650 -122.382801 23 6313ft 256kts
10-Jun-20 11:58 47.147773 -122.333075 17 5917ft 266kts
10-Jun-20 11:59 47.215715 -122.313400 1 4387ft 236kts
10-Jun-20 12:00 47.276234 -122.309527 357 3229ft 198kts
10-Jun-20 12:01 47.329967 -122.309280 358 2275ft 177kts
10-Jun-20 12:02 47.369669 -122.308488 357 1571ft 124kts
10-Jun-20 12:03 47.404709 -122.308246 357 942ft 124kts
10-Jun-20 12:04 47.437671 -122.307959 359 441ft 90kts
10-Jun-20 12:05 47.443592 -122.306768 89 440ft 0kts
10-Jun-20 12:06 47.443278 -122.305468 105 440ft 4kts
10-Jun-20 12:08 47.443865 -122.304150 0 440ft 0kts
10-Jun-20 12:09 47.443866 -122.304150 0 440ft 0kts
10-Jun-20 12:10 47.443866 -122.304150 0 440ft 0kts
10-Jun-20 12:11 47.443866 -122.304150 0 440ft 0kts
10-Jun-20 12:12 47.443866 -122.304150 0 440ft 0kts
10-Jun-20 12:13 47.443866 -122.304150 0 440ft 0kts
10-Jun-20 12:14 47.443866 -122.304150 0 440ft 0kts
10-Jun-20 12:15 47.443866 -122.304150 0 440ft 0kts
10-Jun-20 12:16 47.443866 -122.304150 0 440ft 0kts

Navigation Log

Ident Type
Flight plan parsing failed, navigation log unavailable